Time;durP1;ratioP1;P1;durP2;ratioP2;P2;SDS_P1;SDS_P2;PMS_P1;PMS_P2;Temp;Humidity;BMP_temperature;BMP_pressure;BME280_temperature;BME280_humidity;BME280_pressure;Samples;Min_cycle;Max_cycle;Signal;HPM_P1;HPM_P2
2022/07/10 00:00:45;;;;;;;4.30;3.00;;;;;;;22.34;46.21;99832.02;117039;1187;22635;-63
2022/07/10 00:03:12;;;;;;;5.40;3.50;;;;;;;22.32;46.21;99830.34;117094;1186;22937;-58
2022/07/10 00:05:40;;;;;;;6.40;3.70;;;;;;;22.31;46.18;99829.33;117212;1186;22165;-58
2022/07/10 00:08:07;;;;;;;5.90;3.90;;;;;;;22.29;46.40;99829.31;117267;1185;22624;-58
2022/07/10 00:10:35;;;;;;;4.90;3.40;;;;;;;22.27;46.29;99827.84;117220;1182;21915;-58
2022/07/10 00:13:02;;;;;;;4.20;3.60;;;;;;;22.27;46.25;99827.30;117085;1183;21874;-63
2022/07/10 00:15:31;;;;;;;6.60;4.10;;;;;;;22.26;46.31;99829.69;117145;1186;22735;-63
2022/07/10 00:17:58;;;;;;;5.20;3.50;;;;;;;22.22;46.50;99831.55;117219;1189;21855;-64
2022/07/10 00:20:26;;;;;;;5.80;3.20;;;;;;;22.17;46.64;99832.47;117132;1182;21849;-63
2022/07/10 00:22:54;;;;;;;4.20;3.40;;;;;;;22.10;46.76;99829.03;117225;1182;22621;-58
2022/07/10 00:25:27;;;;;;;5.30;3.40;;;;;;;22.02;46.75;99825.98;117176;1186;21856;-63
2022/07/10 00:27:54;;;;;;;5.40;3.60;;;;;;;21.95;47.05;99822.37;117146;1185;21870;-63
2022/07/10 00:30:21;;;;;;;3.90;3.20;;;;;;;21.91;47.02;99818.53;117153;1186;22621;-59
2022/07/10 00:32:48;;;;;;;6.00;3.30;;;;;;;21.87;47.15;99817.52;117095;1187;21972;-64
2022/07/10 00:35:16;;;;;;;5.70;3.70;;;;;;;21.83;47.11;99814.20;117148;1186;23557;-63
2022/07/10 00:37:43;;;;;;;10.70;3.90;;;;;;;21.78;47.29;99813.31;117179;1182;22918;-64
2022/07/10 00:40:10;;;;;;;5.60;3.20;;;;;;;21.74;47.36;99811.47;117250;1186;22623;-63
2022/07/10 00:42:37;;;;;;;6.40;3.40;;;;;;;21.69;47.47;99809.44;116782;1185;23626;-64
2022/07/10 00:45:05;;;;;;;4.60;3.20;;;;;;;21.66;47.56;99805.56;116992;1187;21854;-59
2022/07/10 00:47:32;;;;;;;6.20;3.40;;;;;;;21.64;47.80;99801.08;116929;1184;22478;-60
2022/07/10 00:50:00;;;;;;;4.30;3.20;;;;;;;21.61;47.51;99799.30;117159;1186;21924;-58
2022/07/10 00:52:27;;;;;;;5.70;3.00;;;;;;;21.60;47.46;99797.54;116912;1186;22624;-64
2022/07/10 00:54:54;;;;;;;3.90;3.10;;;;;;;21.60;47.51;99794.88;117120;1186;22945;-64
2022/07/10 00:57:21;;;;;;;4.50;2.90;;;;;;;21.59;47.54;99795.86;117024;1186;22952;-59
2022/07/10 00:59:48;;;;;;;4.50;3.00;;;;;;;21.58;47.59;99795.02;117059;1182;23570;-58
2022/07/10 01:02:15;;;;;;;5.60;3.30;;;;;;;21.58;47.53;99792.38;117008;1185;22944;-58
2022/07/10 01:04:43;;;;;;;6.20;3.60;;;;;;;21.57;47.77;99790.98;117321;1185;21856;-59
2022/07/10 01:07:10;;;;;;;5.50;2.90;;;;;;;21.57;47.61;99791.19;117003;1186;21850;-63
2022/07/10 01:09:37;;;;;;;5.60;3.00;;;;;;;21.52;47.85;99791.30;117165;1182;22722;-63
2022/07/10 01:12:04;;;;;;;4.40;3.10;;;;;;;21.47;47.77;99785.95;117153;1186;23701;-59
2022/07/10 01:14:31;;;;;;;4.90;3.10;;;;;;;21.41;47.77;99789.54;117028;1186;22970;-59
2022/07/10 01:16:58;;;;;;;6.40;2.90;;;;;;;21.36;47.92;99788.45;117048;1185;22900;-63
2022/07/10 01:19:26;;;;;;;3.80;2.60;;;;;;;21.31;48.04;99790.41;117185;1186;22885;-64
2022/07/10 01:21:53;;;;;;;4.30;3.00;;;;;;;21.23;48.13;99795.84;117122;1176;23723;-63
2022/07/10 01:24:20;;;;;;;4.00;2.70;;;;;;;21.17;48.41;99798.59;117012;1182;22842;-63
2022/07/10 01:26:47;;;;;;;4.90;2.70;;;;;;;21.15;48.00;99797.83;117147;1183;22935;-63
2022/07/10 01:29:14;;;;;;;5.80;3.10;;;;;;;21.14;48.13;99798.46;117129;1189;21909;-63
2022/07/10 01:31:41;;;;;;;3.50;2.40;;;;;;;21.12;48.13;99798.94;117164;1183;23702;-64
2022/07/10 01:34:09;;;;;;;4.90;3.30;;;;;;;21.10;48.09;99800.14;117050;1182;22543;-64
2022/07/10 01:36:36;;;;;;;4.30;3.00;;;;;;;21.07;48.13;99797.45;117195;1182;22971;-58
2022/07/10 01:39:04;;;;;;;5.70;2.80;;;;;;;21.07;47.87;99800.86;117169;1182;23579;-63
2022/07/10 01:41:31;;;;;;;5.20;2.60;;;;;;;21.08;47.89;99799.31;117190;1183;22079;-59
2022/07/10 01:43:58;;;;;;;7.40;3.60;;;;;;;21.10;47.81;99794.39;117173;1182;22921;-59
2022/07/10 01:46:26;;;;;;;5.80;2.70;;;;;;;21.12;47.81;99792.19;117263;1185;22655;-63
2022/07/10 01:48:53;;;;;;;3.20;2.40;;;;;;;21.09;47.81;99791.60;117297;1185;22898;-58
2022/07/10 01:51:21;;;;;;;5.70;2.80;;;;;;;21.08;48.02;99785.10;117107;1182;23545;-59
2022/07/10 01:53:48;;;;;;;5.20;2.70;;;;;;;21.06;47.98;99782.33;117097;1186;21909;-63
2022/07/10 01:56:15;;;;;;;4.20;2.80;;;;;;;21.06;48.04;99783.27;117247;1183;22928;-63
2022/07/10 01:58:42;;;;;;;3.90;2.60;;;;;;;21.05;48.30;99782.59;117214;1182;22809;-58
2022/07/10 02:01:10;;;;;;;5.70;2.80;;;;;;;21.05;48.09;99778.52;117189;1186;22618;-58
2022/07/10 02:06:24;;;;;;;3.20;2.40;;;;;;;21.03;48.03;99779.66;117161;1186;21845;-63
2022/07/10 02:08:51;;;;;;;4.80;2.70;;;;;;;21.02;48.05;99782.49;117156;1186;22077;-59
2022/07/10 02:11:18;;;;;;;3.90;2.60;;;;;;;21.01;48.29;99783.98;117313;1185;23557;-63
2022/07/10 02:13:45;;;;;;;4.30;2.60;;;;;;;21.01;47.93;99787.66;117089;1186;21970;-62
2022/07/10 02:16:13;;;;;;;3.20;2.50;;;;;;;21.03;47.76;99787.38;116959;1186;23721;-63
2022/07/10 02:18:40;;;;;;;3.90;2.40;;;;;;;21.05;47.93;99786.55;117181;1182;23457;-63
2022/07/10 02:21:09;;;;;;;4.30;2.60;;;;;;;21.05;47.98;99785.44;116996;1187;21854;-59
2022/07/10 02:23:39;;;;;;;5.70;2.70;;;;;;;21.06;47.87;99785.61;117145;1182;22948;-64
2022/07/10 02:26:06;;;;;;;4.90;2.70;;;;;;;21.06;47.96;99782.20;117181;1182;22806;-58
2022/07/10 02:28:33;;;;;;;4.20;2.90;;;;;;;21.04;48.14;99785.89;117109;1183;22766;-58
2022/07/10 02:31:00;;;;;;;5.30;2.80;;;;;;;20.99;48.20;99789.81;117003;1188;21866;-62
2022/07/10 02:33:27;;;;;;;3.90;2.80;;;;;;;20.91;48.69;99789.02;116960;1188;22643;-58
2022/07/10 02:35:55;;;;;;;3.70;2.70;;;;;;;20.85;48.73;99787.27;117056;1180;21857;-62
2022/07/10 02:38:22;;;;;;;4.60;2.90;;;;;;;20.80;48.80;99792.60;117163;1186;21863;-62
2022/07/10 02:40:49;;;;;;;3.50;2.90;;;;;;;20.76;49.22;99793.76;117090;1183;22630;-62
2022/07/10 02:43:16;;;;;;;4.40;3.00;;;;;;;20.72;48.86;99793.64;117113;1183;22928;-58
2022/07/10 02:45:43;;;;;;;4.70;2.50;;;;;;;20.71;48.76;99795.48;117116;1186;22811;-63
2022/07/10 02:48:15;;;;;;;5.20;2.50;;;;;;;20.74;48.95;99797.92;116970;1186;21853;-58
2022/07/10 02:50:42;;;;;;;7.30;2.30;;;;;;;20.76;48.77;99789.48;117076;1188;22458;-63
2022/07/10 02:53:09;;;;;;;5.50;2.70;;;;;;;20.75;48.73;99786.10;117165;1186;22940;-58
2022/07/10 02:55:37;;;;;;;8.10;2.50;;;;;;;20.78;48.78;99785.04;117191;1186;23386;-58
2022/07/10 02:58:04;;;;;;;5.80;2.60;;;;;;;20.84;48.66;99782.75;117042;1186;23454;-58
2022/07/10 03:00:31;;;;;;;3.90;2.70;;;;;;;20.90;48.61;99786.81;117052;1186;23017;-58
2022/07/10 03:02:58;;;;;;;3.90;2.60;;;;;;;20.93;48.64;99790.55;117040;1189;24012;-61
2022/07/10 03:05:25;;;;;;;5.20;2.90;;;;;;;20.96;48.53;99795.36;117075;1182;22088;-62
2022/07/10 03:07:52;;;;;;;9.10;2.80;;;;;;;21.00;48.47;99798.27;117022;1183;23453;-63
2022/07/10 03:10:19;;;;;;;5.30;2.70;;;;;;;21.04;48.46;99798.88;116975;1188;23624;-58
2022/07/10 03:12:46;;;;;;;5.80;2.50;;;;;;;21.09;48.42;99798.77;117151;1186;22946;-63
2022/07/10 03:15:13;;;;;;;8.30;2.70;;;;;;;21.14;48.44;99800.63;117067;1183;21847;-63
2022/07/10 03:17:40;;;;;;;11.00;3.00;;;;;;;21.19;48.48;99798.88;117132;1186;21855;-57
2022/07/10 03:20:08;;;;;;;10.30;3.20;;;;;;;21.22;48.54;99797.07;117283;1183;21922;-63
2022/07/10 03:22:36;;;;;;;6.00;2.70;;;;;;;21.26;48.60;99793.92;117078;1183;23553;-59
2022/07/10 03:25:04;;;;;;;4.90;2.60;;;;;;;21.30;48.55;99792.40;117258;1182;23688;-63
2022/07/10 03:27:31;;;;;;;8.90;3.00;;;;;;;21.33;48.60;99793.63;117090;1183;22624;-63
2022/07/10 03:29:58;;;;;;;6.10;2.80;;;;;;;21.37;48.72;99793.54;117012;1187;22836;-63
2022/07/10 03:32:25;;;;;;;4.00;2.60;;;;;;;21.42;48.70;99793.02;116997;1189;22875;-62
2022/07/10 03:34:52;;;;;;;7.70;2.70;;;;;;;21.47;48.49;99793.58;117129;1183;22930;-58
2022/07/10 03:37:19;;;;;;;6.00;2.50;;;;;;;21.51;48.64;99796.70;117007;1189;21904;-63
2022/07/10 03:39:46;;;;;;;4.90;2.30;;;;;;;21.55;48.66;99800.05;117138;1186;22622;-63
2022/07/10 03:42:13;;;;;;;4.40;2.50;;;;;;;21.57;48.58;99804.17;116991;1186;21851;-58
2022/07/10 03:44:40;;;;;;;4.70;2.70;;;;;;;21.60;48.73;99810.03;117256;1185;22833;-58
2022/07/10 03:47:07;;;;;;;7.90;3.20;;;;;;;21.66;48.46;99812.52;117090;1188;21866;-58
2022/07/10 03:49:34;;;;;;;3.30;2.20;;;;;;;21.72;48.32;99815.67;117077;1183;22108;-63
2022/07/10 03:52:02;;;;;;;4.40;2.60;;;;;;;21.79;48.34;99808.42;116975;1187;21869;-63
2022/07/10 03:54:29;;;;;;;5.60;2.50;;;;;;;21.88;48.39;99813.73;117111;1182;22901;-58
2022/07/10 03:59:43;;;;;;;4.80;2.40;;;;;;;22.10;48.02;99812.00;117119;1186;21880;-62
2022/07/10 04:02:10;;;;;;;6.40;3.00;;;;;;;22.16;48.04;99809.48;117241;1183;21855;-58
2022/07/10 04:04:38;;;;;;;12.80;3.00;;;;;;;22.22;47.97;99803.52;117185;1186;23546;-63
2022/07/10 04:07:05;;;;;;;7.60;3.00;;;;;;;22.30;48.08;99800.27;117190;1186;21853;-63
2022/07/10 04:09:32;;;;;;;4.70;2.60;;;;;;;22.38;47.82;99801.67;117303;1182;21853;-58
2022/07/10 04:12:00;;;;;;;4.50;2.20;;;;;;;22.49;47.84;99802.60;117206;1186;21935;-63
2022/07/10 04:14:27;;;;;;;2.90;2.10;;;;;;;22.56;47.79;99802.20;117164;1183;22952;-63
2022/07/10 04:16:54;;;;;;;4.50;2.40;;;;;;;22.66;47.51;99795.66;117223;1186;23670;-58
2022/07/10 04:19:24;;;;;;;9.00;2.40;;;;;;;22.75;47.48;99793.35;116964;1186;21892;-58
2022/07/10 04:21:51;;;;;;;4.90;2.30;;;;;;;22.82;47.24;99785.89;117186;1181;22926;-59
2022/07/10 04:24:18;;;;;;;5.70;2.30;;;;;;;22.91;47.17;99783.83;117183;1182;23076;-63
2022/07/10 04:26:45;;;;;;;5.90;2.80;;;;;;;23.00;47.31;99779.56;117184;1186;22995;-64
2022/07/10 04:29:12;;;;;;;3.60;2.30;;;;;;;23.06;47.33;99775.35;117167;1186;23077;-63
2022/07/10 04:31:40;;;;;;;6.30;2.50;;;;;;;23.13;47.21;99770.77;117219;1186;22096;-58
2022/07/10 04:34:07;;;;;;;6.00;3.00;;;;;;;23.24;47.01;99766.39;117215;1185;22976;-59
2022/07/10 04:36:34;;;;;;;4.20;2.70;;;;;;;23.36;47.09;99767.23;117464;1183;22876;-65
2022/07/10 04:39:02;;;;;;;4.80;3.00;;;;;;;23.47;47.14;99768.44;117074;1185;21857;-64
2022/07/10 04:41:31;;;;;;;7.80;2.50;;;;;;;23.56;46.91;99761.86;117256;1186;21933;-64
2022/07/10 04:43:58;;;;;;;6.60;2.60;;;;;;;23.61;46.72;99763.95;117135;1186;22937;-64
2022/07/10 04:46:25;;;;;;;7.80;2.70;;;;;;;23.69;46.55;99761.59;117130;1182;21870;-66
2022/07/10 04:48:52;;;;;;;5.00;2.50;;;;;;;23.77;46.55;99762.17;117201;1186;23557;-58
2022/07/10 04:51:19;;;;;;;9.00;2.90;;;;;;;23.86;46.61;99767.23;117016;1186;21866;-65
2022/07/10 04:53:46;;;;;;;4.70;2.70;;;;;;;23.98;46.38;99766.34;117029;1186;21862;-64
2022/07/10 04:56:13;;;;;;;4.40;2.50;;;;;;;24.12;46.16;99764.89;117196;1186;21849;-58
2022/07/10 04:58:40;;;;;;;5.10;2.50;;;;;;;24.24;46.08;99760.92;117036;1183;22921;-58
2022/07/10 05:01:10;;;;;;;5.90;2.50;;;;;;;24.36;46.02;99759.40;116909;1186;21853;-64
2022/07/10 05:03:37;;;;;;;5.80;2.60;;;;;;;24.47;46.07;99757.48;117072;1182;23557;-58
2022/07/10 05:06:05;;;;;;;4.70;2.60;;;;;;;24.56;45.92;99754.42;116996;1187;23563;-58
2022/07/10 05:08:32;;;;;;;4.70;2.20;;;;;;;24.65;45.67;99749.05;117033;1186;21967;-59
2022/07/10 05:11:00;;;;;;;4.10;2.40;;;;;;;24.74;45.74;99749.27;116882;1186;22962;-58
2022/07/10 05:13:27;;;;;;;4.10;2.50;;;;;;;24.84;45.65;99749.16;117065;1186;21863;-59
2022/07/10 05:15:54;;;;;;;4.50;2.60;;;;;;;24.96;45.36;99745.60;117165;1183;22918;-63
2022/07/10 05:18:21;;;;;;;10.90;4.80;;;;;;;25.11;45.40;99745.84;117063;1186;21861;-63
2022/07/10 05:20:49;;;;;;;5.30;2.90;;;;;;;25.26;45.28;99752.46;117246;1185;21854;-64
2022/07/10 05:23:16;;;;;;;6.40;2.90;;;;;;;25.40;45.08;99755.83;117199;1185;22087;-63
2022/07/10 05:25:43;;;;;;;9.40;3.00;;;;;;;25.52;45.04;99763.77;117260;1184;21937;-59
2022/07/10 05:28:12;;;;;;;9.90;3.40;;;;;;;25.65;44.93;99768.45;117168;1186;22746;-64
2022/07/10 05:30:40;;;;;;;5.20;2.90;;;;;;;25.74;44.76;99768.09;117826;1185;22646;-63
2022/07/10 05:33:07;;;;;;;4.90;2.60;;;;;;;25.81;44.52;99771.58;117117;1185;22933;-59
2022/07/10 05:35:34;;;;;;;6.20;2.60;;;;;;;25.81;44.29;99771.38;117137;1185;21857;-59
2022/07/10 05:38:01;;;;;;;3.90;2.30;;;;;;;25.83;44.39;99766.36;117162;1186;21858;-64
2022/07/10 05:40:28;;;;;;;4.60;2.30;;;;;;;25.95;44.49;99761.02;117199;1186;21873;-59
2022/07/10 05:42:56;;;;;;;5.70;3.20;;;;;;;26.13;44.33;99758.64;116987;1182;21866;-58
2022/07/10 05:45:23;;;;;;;7.20;2.80;;;;;;;26.27;44.07;99752.55;117076;1184;21968;-59
2022/07/10 05:47:50;;;;;;;5.40;2.90;;;;;;;26.39;43.95;99748.27;117002;1184;22969;-60
2022/07/10 05:50:17;;;;;;;5.40;2.70;;;;;;;26.52;43.91;99738.45;117064;1186;22923;-59
2022/07/10 05:52:44;;;;;;;12.50;2.50;;;;;;;26.67;43.81;99737.83;117159;1186;21857;-59
2022/07/10 05:55:11;;;;;;;5.20;2.40;;;;;;;26.82;43.69;99732.73;117121;1183;23093;-59
2022/07/10 05:57:38;;;;;;;10.40;2.90;;;;;;;27.02;43.28;99734.38;117208;1186;21855;-63
2022/07/10 06:00:06;;;;;;;5.20;2.30;;;;;;;27.14;42.94;99728.04;116998;1187;24264;-64
2022/07/10 06:02:33;;;;;;;6.20;3.00;;;;;;;27.22;42.59;99725.20;116913;1187;21856;-64
2022/07/10 06:05:00;;;;;;;4.20;2.20;;;;;;;27.30;42.84;99720.47;116981;1186;23635;-60
2022/07/10 06:07:27;;;;;;;4.40;2.20;;;;;;;27.43;42.72;99711.70;116954;1186;21860;-64
2022/07/10 06:09:55;;;;;;;5.70;2.70;;;;;;;27.58;42.63;99711.05;117010;1182;22099;-63
2022/07/10 06:12:22;;;;;;;4.90;2.20;;;;;;;27.77;42.40;99708.71;117030;1183;21918;-64
2022/07/10 06:14:49;;;;;;;4.10;2.30;;;;;;;27.92;42.22;99713.92;117130;1186;21870;-65
2022/07/10 06:17:16;;;;;;;3.90;2.40;;;;;;;28.02;41.56;99716.20;117134;1186;23821;-59
2022/07/10 06:19:43;;;;;;;4.30;2.30;;;;;;;28.06;41.01;99713.17;116803;1186;23458;-65
2022/07/10 06:25:00;;;;;;;7.90;2.70;;;;;;;28.25;41.34;99706.67;117190;1183;23637;-59
2022/07/10 06:27:28;;;;;;;4.70;2.80;;;;;;;28.41;41.30;99703.68;117082;1186;21927;-60
2022/07/10 06:29:55;;;;;;;7.50;2.40;;;;;;;28.51;41.03;99693.30;117003;1186;22914;-59
2022/07/10 06:32:22;;;;;;;6.10;2.50;;;;;;;28.58;40.54;99692.84;117224;1186;21869;-60
2022/07/10 06:34:51;;;;;;;3.00;2.10;;;;;;;28.64;40.67;99683.95;117115;1183;22927;-59
2022/07/10 06:37:18;;;;;;;4.80;2.20;;;;;;;28.72;40.55;99678.74;117007;1187;24186;-59
2022/07/10 06:39:47;;;;;;;10.20;2.70;;;;;;;28.81;40.37;99676.46;117014;1188;21904;-59
2022/07/10 06:42:14;;;;;;;29.30;4.30;;;;;;;28.85;40.15;99677.03;117174;1186;21883;-65
2022/07/10 06:44:42;;;;;;;6.90;2.30;;;;;;;28.99;40.50;99671.78;116919;1188;22975;-65
2022/07/10 06:49:58;;;;;;;7.00;2.30;;;;;;;29.32;39.16;99683.63;117071;1183;21891;-65
2022/07/10 06:52:25;;;;;;;5.50;2.40;;;;;;;29.37;39.20;99684.97;116937;1185;22999;-64
2022/07/10 06:54:52;;;;;;;6.00;2.20;;;;;;;29.39;39.15;99686.40;116998;1187;21888;-65
2022/07/10 06:57:19;;;;;;;3.90;2.30;;;;;;;29.45;39.07;99686.83;117118;1182;21847;-65
2022/07/10 06:59:46;;;;;;;3.60;2.20;;;;;;;29.58;38.86;99690.80;117178;1186;21932;-66
2022/07/10 07:02:14;;;;;;;6.30;2.20;;;;;;;29.73;39.23;99693.74;116972;1186;21864;-63
2022/07/10 07:04:44;;;;;;;3.50;1.80;;;;;;;29.79;38.62;99690.54;117119;1187;22958;-66
2022/07/10 07:07:12;;;;;;;6.40;1.90;;;;;;;29.85;38.44;99689.11;117000;1186;21852;-65
2022/07/10 07:09:40;;;;;;;3.10;1.90;;;;;;;29.88;38.00;99688.17;117052;1187;23298;-64
2022/07/10 07:12:08;;;;;;;2.50;2.00;;;;;;;29.92;38.02;99694.26;117140;1181;22955;-60
2022/07/10 07:14:35;;;;;;;3.10;2.30;;;;;;;30.04;38.78;99693.02;117079;1182;23465;-64
2022/07/10 07:17:12;;;;;;;8.70;2.00;;;;;;;30.28;38.34;99690.00;117049;1187;21864;-59
2022/07/10 07:25:11;;;;;;;5.50;2.10;;;;;;;30.90;37.45;99685.76;117217;1180;22921;-65
2022/07/10 07:27:39;;;;;;;5.90;2.00;;;;;;;31.02;37.57;99686.86;117150;1183;21932;-64
2022/07/10 07:30:10;;;;;;;7.60;2.60;;;;;;;31.18;37.16;99690.52;117092;1182;24718;-65
2022/07/10 07:32:38;;;;;;;3.50;1.90;;;;;;;31.32;36.95;99685.39;117129;1183;21922;-66
2022/07/10 07:35:05;;;;;;;3.60;1.90;;;;;;;31.37;36.14;99682.25;117068;1187;22875;-61
2022/07/10 07:37:44;;;;;;;7.80;2.40;;;;;;;31.42;35.98;99681.90;117007;1186;21872;-65
2022/07/10 07:40:13;;;;;;;3.90;2.10;;;;;;;31.40;35.86;99685.00;117113;1186;23579;-60
2022/07/10 07:42:43;;;;;;;4.00;1.70;;;;;;;31.44;36.43;99677.44;117218;1184;21902;-65
2022/07/10 07:45:10;;;;;;;3.10;2.00;;;;;;;31.48;34.98;99677.24;117030;1182;21865;-60
2022/07/10 07:47:51;;;;;;;4.70;2.10;;;;;;;31.52;35.46;99675.20;117202;1186;22633;-59
2022/07/10 07:50:23;;;;;;;3.50;2.20;;;;;;;31.56;35.17;99674.04;117007;1182;22624;-60
2022/07/10 07:52:51;;;;;;;3.60;1.80;;;;;;;31.72;35.89;99669.14;116816;1184;22384;-60
2022/07/10 07:55:18;;;;;;;5.00;1.60;;;;;;;31.92;35.15;99668.48;116982;1187;21855;-60
2022/07/10 07:57:45;;;;;;;9.70;2.40;;;;;;;31.99;34.15;99669.68;116849;1186;23047;-60
2022/07/10 08:00:14;;;;;;;7.20;1.70;;;;;;;32.03;34.27;99668.78;116972;1183;22909;-59
2022/07/10 08:02:41;;;;;;;2.90;1.60;;;;;;;32.20;35.09;99666.27;117092;1186;21865;-64
2022/07/10 08:05:09;;;;;;;4.40;2.20;;;;;;;32.41;34.52;99664.00;117123;1187;21908;-61
2022/07/10 08:07:36;;;;;;;7.80;2.20;;;;;;;32.56;34.28;99656.19;117017;1182;24214;-65
2022/07/10 08:10:04;;;;;;;4.60;2.40;;;;;;;32.68;34.14;99656.13;117033;1186;21917;-60
2022/07/10 08:12:31;;;;;;;3.60;1.90;;;;;;;32.89;33.66;99650.44;117223;1183;21863;-65
2022/07/10 08:14:58;;;;;;;4.90;1.90;;;;;;;33.03;33.51;99654.84;117220;1185;21861;-60
2022/07/10 08:17:26;;;;;;;3.90;2.00;;;;;;;33.10;32.84;99655.45;117158;1186;22975;-60
2022/07/10 08:19:54;;;;;;;6.60;2.00;;;;;;;33.05;32.49;99652.81;117175;1182;21884;-60
2022/07/10 08:22:21;;;;;;;3.70;1.60;;;;;;;33.02;33.38;99650.02;117228;1183;21924;-59
2022/07/10 08:24:48;;;;;;;4.80;1.60;;;;;;;33.15;32.07;99648.70;117026;1181;21950;-64
2022/07/10 08:27:15;;;;;;;2.90;1.60;;;;;;;33.18;32.24;99646.02;117146;1182;22622;-65
2022/07/10 08:29:43;;;;;;;5.00;1.70;;;;;;;33.23;32.64;99643.21;117077;1182;21932;-64
2022/07/10 08:32:10;;;;;;;2.80;1.40;;;;;;;33.49;32.87;99640.06;117050;1186;21930;-60
2022/07/10 08:34:37;;;;;;;11.10;1.80;;;;;;;33.74;32.15;99640.00;117038;1186;22919;-65
2022/07/10 08:37:04;;;;;;;5.10;1.60;;;;;;;33.57;30.03;99643.88;117116;1185;22948;-65
2022/07/10 08:39:32;;;;;;;8.00;1.80;;;;;;;33.47;30.59;99644.23;116946;1183;21881;-61
2022/07/10 08:41:59;;;;;;;2.00;1.20;;;;;;;33.49;29.45;99644.31;117005;1186;23028;-62
2022/07/10 08:44:27;;;;;;;9.40;2.10;;;;;;;33.42;29.47;99644.23;117158;1183;21921;-60
2022/07/10 08:46:54;;;;;;;8.50;1.90;;;;;;;33.33;30.05;99643.75;117119;1183;23457;-59
2022/07/10 08:49:30;;;;;;;5.10;1.80;;;;;;;33.26;30.43;99643.04;117118;1182;21951;-60
2022/07/10 08:52:01;;;;;;;4.90;1.70;;;;;;;33.37;31.09;99640.63;116901;1187;22580;-59
2022/07/10 08:54:29;;;;;;;8.60;2.50;;;;;;;33.64;30.89;99635.50;116905;1186;23662;-60
2022/07/10 08:56:57;;;;;;;6.90;4.70;;;;;;;33.86;30.37;99633.20;117078;1182;24162;-61
2022/07/10 08:59:24;;;;;;;4.50;2.10;;;;;;;34.00;29.68;99626.70;116949;1182;22930;-60
2022/07/10 09:01:57;;;;;;;4.90;2.10;;;;;;;34.06;29.15;99620.94;116991;1186;21865;-60
2022/07/10 09:04:25;;;;;;;13.50;9.70;;;;;;;34.15;29.35;99628.30;117043;1186;22010;-60
2022/07/10 09:06:53;;;;;;;4.40;2.50;;;;;;;34.19;28.78;99621.96;117101;1182;23643;-59
2022/07/10 09:09:20;;;;;;;4.10;1.50;;;;;;;34.07;27.59;99626.14;116996;1186;22317;-61
2022/07/10 09:11:47;;;;;;;8.60;1.50;;;;;;;34.12;28.14;99621.13;117156;1185;23284;-60
2022/07/10 09:14:15;;;;;;;3.50;1.40;;;;;;;34.28;28.57;99620.59;117022;1187;23724;-60
2022/07/10 09:16:59;;;;;;;4.50;1.50;;;;;;;34.43;28.83;99618.04;117198;1185;21863;-61
2022/07/10 09:19:27;;;;;;;4.20;1.50;;;;;;;34.63;28.53;99617.06;117147;1183;22970;-61
2022/07/10 09:22:01;;;;;;;4.60;1.60;;;;;;;34.76;27.73;99617.48;117064;1185;21858;-60
2022/07/10 09:24:36;;;;;;;2.10;1.20;;;;;;;34.89;28.61;99612.60;117299;1185;21859;-59
2022/07/10 09:27:04;;;;;;;4.10;1.40;;;;;;;35.00;27.63;99608.02;117054;1185;21868;-61
2022/07/10 09:29:32;;;;;;;4.30;1.60;;;;;;;35.06;27.68;99607.77;117165;1186;21865;-61
2022/07/10 09:32:00;;;;;;;5.00;1.90;;;;;;;35.09;27.02;99605.56;117141;1185;23344;-62
2022/07/10 09:37:39;;;;;;;2.90;1.40;;;;;;;35.37;27.74;99593.63;117122;1183;21858;-65
2022/07/10 09:40:08;;;;;;;4.60;1.60;;;;;;;35.45;27.39;99590.91;117301;1182;22928;-66
2022/07/10 09:42:47;;;;;;;3.20;1.80;;;;;;;35.42;26.35;99584.07;117130;1187;23634;-61
2022/07/10 09:45:16;;;;;;;5.00;1.30;;;;;;;35.37;26.10;99580.50;117010;1185;22940;-66
2022/07/10 09:47:52;;;;;;;5.90;1.60;;;;;;;35.22;25.31;99575.44;117158;1183;21859;-61
2022/07/10 09:50:22;;;;;;;8.60;1.70;;;;;;;34.99;26.12;99581.48;117280;1185;21868;-61
2022/07/10 09:52:53;;;;;;;3.70;1.50;;;;;;;34.89;27.21;99575.38;117249;1186;21870;-67
2022/07/10 09:55:21;;;;;;;3.70;1.40;;;;;;;34.96;26.90;99577.68;117066;1186;21901;-61
2022/07/10 09:57:54;;;;;;;5.90;1.60;;;;;;;35.07;26.56;99574.16;117143;1183;22099;-61
2022/07/10 10:00:25;;;;;;;6.50;1.80;;;;;;;35.28;26.76;99571.44;116944;1185;22672;-67
2022/07/10 10:02:59;;;;;;;3.00;1.00;;;;;;;35.61;27.11;99569.91;117059;1185;23011;-67
2022/07/10 10:05:36;;;;;;;3.00;1.30;;;;;;;35.91;26.39;99566.81;117064;1187;21864;-67
2022/07/10 10:08:43;;;;;;;33.20;3.60;;;;;;;35.96;25.25;99569.46;117219;1185;22133;-61
2022/07/10 10:11:13;;;;;;;5.20;1.20;;;;;;;35.70;24.37;99572.67;117080;1183;21856;-61
2022/07/10 10:13:41;;;;;;;3.20;1.20;;;;;;;35.49;24.63;99570.61;116977;1186;21861;-62
2022/07/10 10:16:08;;;;;;;3.00;1.10;;;;;;;35.46;24.97;99562.55;117158;1185;22723;-61
2022/07/10 10:18:37;;;;;;;2.10;1.10;;;;;;;35.52;25.28;99562.44;117043;1184;21860;-66
2022/07/10 10:21:07;;;;;;;3.90;1.20;;;;;;;35.50;25.10;99562.35;116917;1187;21870;-59
2022/07/10 10:23:34;;;;;;;2.70;1.10;;;;;;;35.49;24.97;99560.52;117023;1181;22938;-59
2022/07/10 10:26:02;;;;;;;1.30;0.80;;;;;;;35.56;24.88;99553.44;117105;1185;24173;-60
2022/07/10 10:28:29;;;;;;;2.60;1.10;;;;;;;35.74;24.98;99554.57;117182;1185;24283;-60
2022/07/10 10:30:58;;;;;;;3.00;1.00;;;;;;;35.72;23.13;99546.74;116882;1187;21902;-60
2022/07/10 10:33:32;;;;;;;6.00;1.30;;;;;;;35.59;23.12;99548.08;117036;1186;21861;-61
2022/07/10 10:36:06;;;;;;;3.70;1.30;;;;;;;35.49;23.63;99549.80;116948;1186;23663;-67
2022/07/10 10:38:49;;;;;;;6.00;1.50;;;;;;;35.61;24.09;99547.06;117248;1184;21857;-67
2022/07/10 10:41:24;;;;;;;5.70;1.40;;;;;;;35.68;23.24;99555.90;117136;1183;23453;-68
2022/07/10 10:44:09;;;;;;;4.50;1.20;;;;;;;35.77;23.59;99557.54;117193;1183;22624;-61
2022/07/10 10:46:54;;;;;;;2.30;1.10;;;;;;;35.81;23.68;99545.17;117102;1187;22948;-66
2022/07/10 10:49:22;;;;;;;2.90;1.20;;;;;;;35.83;22.97;99545.51;117271;1180;24168;-66
2022/07/10 10:52:00;;;;;;;3.70;1.10;;;;;;;35.83;22.78;99543.41;117205;1186;24302;-65
2022/07/10 10:54:56;;;;;;;5.70;1.50;;;;;;;35.89;22.72;99535.47;117125;1186;21968;-61
2022/07/10 10:57:36;;;;;;;7.00;1.40;;;;;;;36.04;22.65;99529.09;117211;1184;22938;-69
2022/07/10 11:00:07;;;;;;;1.10;0.80;;;;;;;36.09;23.26;99535.05;117017;1186;23664;-69
2022/07/10 11:02:37;;;;;;;2.70;1.20;;;;;;;36.31;23.60;99533.98;117032;1182;21859;-68
2022/07/10 11:05:18;;;;;;;2.40;1.30;;;;;;;36.52;22.80;99533.77;116946;1188;22182;-67
2022/07/10 11:07:53;;;;;;;5.20;1.40;;;;;;;36.40;22.35;99528.07;117132;1182;22167;-66
2022/07/10 11:10:43;;;;;;;8.10;1.50;;;;;;;36.23;22.45;99529.98;117009;1185;21858;-69
2022/07/10 11:13:16;;;;;;;2.10;0.90;;;;;;;36.17;22.57;99531.28;117202;1182;22809;-61
2022/07/10 11:15:45;;;;;;;6.90;1.30;;;;;;;36.22;22.46;99525.20;117310;1182;21881;-60
2022/07/10 11:18:17;;;;;;;2.70;1.00;;;;;;;36.15;22.25;99524.27;117286;1182;22233;-67
2022/07/10 11:20:51;;;;;;;5.00;1.20;;;;;;;36.22;22.79;99526.44;117044;1188;22337;-66
2022/07/10 11:23:24;;;;;;;3.30;0.90;;;;;;;36.29;22.01;99525.98;117002;1186;21866;-67
2022/07/10 11:26:12;;;;;;;1.70;0.80;;;;;;;36.37;21.74;99525.87;117305;1183;22094;-61
2022/07/10 11:28:55;;;;;;;2.50;0.80;;;;;;;36.54;22.21;99520.30;117267;1182;21927;-61
2022/07/10 11:31:24;;;;;;;2.20;0.90;;;;;;;36.67;22.08;99517.09;117277;1185;24182;-62
2022/07/10 11:33:53;;;;;;;6.90;1.50;;;;;;;36.78;22.11;99513.63;117282;1182;22637;-61
2022/07/10 11:36:28;;;;;;;2.00;0.90;;;;;;;36.74;21.39;99511.39;117289;1186;21875;-61
2022/07/10 11:39:05;;;;;;;1.90;0.90;;;;;;;36.48;21.44;99513.33;117101;1183;21860;-61
2022/07/10 11:41:33;;;;;;;1.50;0.80;;;;;;;36.26;21.64;99512.02;117288;1182;23567;-63
2022/07/10 11:44:04;;;;;;;9.00;1.10;;;;;;;36.22;22.20;99507.98;117106;1186;22283;-65
2022/07/10 11:46:34;;;;;;;4.90;0.80;;;;;;;36.23;22.22;99509.58;117121;1185;23554;-66
2022/07/10 11:49:04;;;;;;;5.00;1.20;;;;;;;36.36;21.86;99508.46;117006;1187;21869;-63
2022/07/10 11:51:36;;;;;;;1.60;0.80;;;;;;;36.53;22.15;99499.64;117307;1185;21862;-66